Bierbeek, Belgium
Current Conditions -  °F | °C
As of 9:25 AM on Thursday 23 Oct 2014 (Local Time) from EBBE Reporting Station
Broken Clouds Broken Clouds  
Wind Chill: 45°   Ceiling: 14000
Heat Index: 48°   Visibility: 6mi
Dew Point: 45°   Wind: 8mph
Humidity: 87%   Direction: 210°SSW
Pressure: 30.24"   Gusts: NA
Location:  50.83°N, 4.76°E
Report Text: EBBE 230725Z 21007KT 9000 FEW032 BKN140 09/07 Q1024 BLU BLU
Loading
Personal Weather Stations






























Interactive Weather Map
Tropical Storm Tracking
New forecast layout! Learn more

10-Day Weather Forecast

Advertisements
Track Severe Weather on mobile